sensor_id;sensor_type;location;lat;lon;timestamp;temperature;humidity
46608;DHT22;32330;51.936;7.184;2023-01-16T00:01:47;5.70;99.90
46608;DHT22;32330;51.936;7.184;2023-01-16T00:04:14;5.70;99.90
46608;DHT22;32330;51.936;7.184;2023-01-16T00:06:41;5.70;99.90
46608;DHT22;32330;51.936;7.184;2023-01-16T00:09:08;5.70;99.90
46608;DHT22;32330;51.936;7.184;2023-01-16T00:11:36;5.80;99.90
46608;DHT22;32330;51.936;7.184;2023-01-16T00:14:03;5.70;99.90
46608;DHT22;32330;51.936;7.184;2023-01-16T00:16:30;5.70;99.90
46608;DHT22;32330;51.936;7.184;2023-01-16T00:18:57;5.70;99.90
46608;DHT22;32330;51.936;7.184;2023-01-16T00:21:24;5.70;99.90
46608;DHT22;32330;51.936;7.184;2023-01-16T00:23:52;5.70;99.90
46608;DHT22;32330;51.936;7.184;2023-01-16T00:26:19;5.80;99.90
46608;DHT22;32330;51.936;7.184;2023-01-16T00:28:48;5.80;99.90
46608;DHT22;32330;51.936;7.184;2023-01-16T00:31:16;5.70;99.90
46608;DHT22;32330;51.936;7.184;2023-01-16T00:33:43;5.80;99.90
46608;DHT22;32330;51.936;7.184;2023-01-16T00:36:11;5.80;99.90
46608;DHT22;32330;51.936;7.184;2023-01-16T00:38:39;5.70;99.90
46608;DHT22;32330;51.936;7.184;2023-01-16T00:41:06;5.70;99.90
46608;DHT22;32330;51.936;7.184;2023-01-16T00:43:33;5.70;99.90
46608;DHT22;32330;51.936;7.184;2023-01-16T00:46:02;5.70;99.90
46608;DHT22;32330;51.936;7.184;2023-01-16T00:48:29;5.60;99.90
46608;DHT22;32330;51.936;7.184;2023-01-16T00:50:56;5.60;99.90
46608;DHT22;32330;51.936;7.184;2023-01-16T00:53:23;5.60;99.90
46608;DHT22;32330;51.936;7.184;2023-01-16T00:55:50;5.50;99.90
46608;DHT22;32330;51.936;7.184;2023-01-16T00:58:17;5.50;99.90
46608;DHT22;32330;51.936;7.184;2023-01-16T01:00:44;5.50;99.90
46608;DHT22;32330;51.936;7.184;2023-01-16T01:03:13;5.50;99.90
46608;DHT22;32330;51.936;7.184;2023-01-16T01:05:40;5.50;99.90
46608;DHT22;32330;51.936;7.184;2023-01-16T01:08:07;5.40;99.90
46608;DHT22;32330;51.936;7.184;2023-01-16T01:10:36;5.40;99.90
46608;DHT22;32330;51.936;7.184;2023-01-16T01:13:04;5.40;99.90
46608;DHT22;32330;51.936;7.184;2023-01-16T01:15:33;5.40;99.90
46608;DHT22;32330;51.936;7.184;2023-01-16T01:18:00;5.30;99.90
46608;DHT22;32330;51.936;7.184;2023-01-16T01:20:28;5.40;99.90
46608;DHT22;32330;51.936;7.184;2023-01-16T01:22:55;5.40;99.90
46608;DHT22;32330;51.936;7.184;2023-01-16T01:25:23;5.40;99.90
46608;DHT22;32330;51.936;7.184;2023-01-16T01:27:50;5.40;99.90
46608;DHT22;32330;51.936;7.184;2023-01-16T01:30:17;5.40;99.90
46608;DHT22;32330;51.936;7.184;2023-01-16T01:32:44;5.40;99.90
46608;DHT22;32330;51.936;7.184;2023-01-16T01:35:11;5.40;99.90
46608;DHT22;32330;51.936;7.184;2023-01-16T01:37:40;5.40;99.90
46608;DHT22;32330;51.936;7.184;2023-01-16T01:40:08;5.40;99.90
46608;DHT22;32330;51.936;7.184;2023-01-16T01:42:38;5.40;99.90
46608;DHT22;32330;51.936;7.184;2023-01-16T01:45:14;5.40;99.90
46608;DHT22;32330;51.936;7.184;2023-01-16T01:47:45;5.40;99.90
46608;DHT22;32330;51.936;7.184;2023-01-16T01:50:20;5.40;99.90
46608;DHT22;32330;51.936;7.184;2023-01-16T01:52:50;5.40;99.90
46608;DHT22;32330;51.936;7.184;2023-01-16T01:55:18;5.40;99.90
46608;DHT22;32330;51.936;7.184;2023-01-16T01:57:49;5.40;99.90
46608;DHT22;32330;51.936;7.184;2023-01-16T02:00:21;5.40;99.90
46608;DHT22;32330;51.936;7.184;2023-01-16T02:02:52;5.40;99.90
46608;DHT22;32330;51.936;7.184;2023-01-16T02:05:23;5.40;99.90
46608;DHT22;32330;51.936;7.184;2023-01-16T02:07:52;5.40;99.90
46608;DHT22;32330;51.936;7.184;2023-01-16T02:10:27;5.40;99.90
46608;DHT22;32330;51.936;7.184;2023-01-16T02:12:56;5.30;99.90
46608;DHT22;32330;51.936;7.184;2023-01-16T02:15:24;5.30;99.90
46608;DHT22;32330;51.936;7.184;2023-01-16T02:17:51;5.30;99.90
46608;DHT22;32330;51.936;7.184;2023-01-16T02:20:45;5.30;99.90
46608;DHT22;32330;51.936;7.184;2023-01-16T02:23:50;5.30;99.90
46608;DHT22;32330;51.936;7.184;2023-01-16T02:26:56;5.30;99.90
46608;DHT22;32330;51.936;7.184;2023-01-16T02:29:49;5.30;99.90
46608;DHT22;32330;51.936;7.184;2023-01-16T02:32:45;5.30;99.90
46608;DHT22;32330;51.936;7.184;2023-01-16T02:35:25;5.30;99.90
46608;DHT22;32330;51.936;7.184;2023-01-16T02:37:55;5.30;99.90
46608;DHT22;32330;51.936;7.184;2023-01-16T02:40:38;5.30;99.90
46608;DHT22;32330;51.936;7.184;2023-01-16T02:43:15;5.30;99.90
46608;DHT22;32330;51.936;7.184;2023-01-16T02:45:49;5.30;99.90
46608;DHT22;32330;51.936;7.184;2023-01-16T02:48:26;5.30;99.90
46608;DHT22;32330;51.936;7.184;2023-01-16T02:50:58;5.30;99.90
46608;DHT22;32330;51.936;7.184;2023-01-16T02:53:34;5.30;99.90
46608;DHT22;32330;51.936;7.184;2023-01-16T02:56:06;5.30;99.90
46608;DHT22;32330;51.936;7.184;2023-01-16T02:58:35;5.30;99.90
46608;DHT22;32330;51.936;7.184;2023-01-16T03:01:04;5.30;99.90
46608;DHT22;32330;51.936;7.184;2023-01-16T03:03:47;5.20;99.90
46608;DHT22;32330;51.936;7.184;2023-01-16T03:06:31;5.20;99.90
46608;DHT22;32330;51.936;7.184;2023-01-16T03:09:17;5.20;99.90
46608;DHT22;32330;51.936;7.184;2023-01-16T03:11:58;5.20;99.90
46608;DHT22;32330;51.936;7.184;2023-01-16T03:14:36;5.20;99.90
46608;DHT22;32330;51.936;7.184;2023-01-16T03:17:11;5.10;99.90
46608;DHT22;32330;51.936;7.184;2023-01-16T03:19:52;5.10;99.90
46608;DHT22;32330;51.936;7.184;2023-01-16T03:22:27;5.10;99.90
46608;DHT22;32330;51.936;7.184;2023-01-16T03:25:10;5.00;99.90
46608;DHT22;32330;51.936;7.184;2023-01-16T03:27:43;5.00;99.90
46608;DHT22;32330;51.936;7.184;2023-01-16T03:30:16;4.90;99.90
46608;DHT22;32330;51.936;7.184;2023-01-16T03:32:50;4.90;99.90
46608;DHT22;32330;51.936;7.184;2023-01-16T03:35:24;4.90;99.90
46608;DHT22;32330;51.936;7.184;2023-01-16T03:37:55;4.90;99.90
46608;DHT22;32330;51.936;7.184;2023-01-16T03:40:26;4.90;99.90
46608;DHT22;32330;51.936;7.184;2023-01-16T03:42:58;4.90;99.90
46608;DHT22;32330;51.936;7.184;2023-01-16T03:45:32;4.90;99.90
46608;DHT22;32330;51.936;7.184;2023-01-16T03:48:03;4.80;99.90
46608;DHT22;32330;51.936;7.184;2023-01-16T03:50:33;4.90;99.90
46608;DHT22;32330;51.936;7.184;2023-01-16T03:53:04;4.90;99.90
46608;DHT22;32330;51.936;7.184;2023-01-16T03:55:35;4.90;99.90
46608;DHT22;32330;51.936;7.184;2023-01-16T03:58:07;4.90;99.90
46608;DHT22;32330;51.936;7.184;2023-01-16T04:00:43;4.90;99.90
46608;DHT22;32330;51.936;7.184;2023-01-16T04:03:16;4.90;99.90
46608;DHT22;32330;51.936;7.184;2023-01-16T04:05:50;4.80;99.90
46608;DHT22;32330;51.936;7.184;2023-01-16T04:08:21;4.90;99.90
46608;DHT22;32330;51.936;7.184;2023-01-16T04:10:51;4.90;99.90
46608;DHT22;32330;51.936;7.184;2023-01-16T04:13:22;4.80;99.90
46608;DHT22;32330;51.936;7.184;2023-01-16T04:15:53;4.80;99.90
46608;DHT22;32330;51.936;7.184;2023-01-16T04:18:26;4.80;99.90
46608;DHT22;32330;51.936;7.184;2023-01-16T04:20:56;4.70;99.90
46608;DHT22;32330;51.936;7.184;2023-01-16T04:23:23;4.70;99.90
46608;DHT22;32330;51.936;7.184;2023-01-16T04:25:50;4.70;99.90
46608;DHT22;32330;51.936;7.184;2023-01-16T04:28:17;4.60;99.90
46608;DHT22;32330;51.936;7.184;2023-01-16T04:30:44;4.60;99.90
46608;DHT22;32330;51.936;7.184;2023-01-16T04:33:11;4.50;99.90
46608;DHT22;32330;51.936;7.184;2023-01-16T04:35:38;4.50;99.90
46608;DHT22;32330;51.936;7.184;2023-01-16T04:38:06;4.50;99.90
46608;DHT22;32330;51.936;7.184;2023-01-16T04:40:33;4.40;99.90
46608;DHT22;32330;51.936;7.184;2023-01-16T04:43:00;4.30;99.90
46608;DHT22;32330;51.936;7.184;2023-01-16T04:45:27;4.30;99.90
46608;DHT22;32330;51.936;7.184;2023-01-16T04:47:54;4.30;99.90
46608;DHT22;32330;51.936;7.184;2023-01-16T04:50:21;4.30;99.90
46608;DHT22;32330;51.936;7.184;2023-01-16T04:52:48;4.20;99.90
46608;DHT22;32330;51.936;7.184;2023-01-16T04:55:17;4.20;99.90
46608;DHT22;32330;51.936;7.184;2023-01-16T04:57:44;4.20;99.90
46608;DHT22;32330;51.936;7.184;2023-01-16T05:00:12;4.20;99.90
46608;DHT22;32330;51.936;7.184;2023-01-16T05:02:39;4.10;99.90
46608;DHT22;32330;51.936;7.184;2023-01-16T05:05:06;4.20;99.90
46608;DHT22;32330;51.936;7.184;2023-01-16T05:07:33;4.20;99.90
46608;DHT22;32330;51.936;7.184;2023-01-16T05:10:00;4.10;99.90
46608;DHT22;32330;51.936;7.184;2023-01-16T05:12:28;4.10;99.90
46608;DHT22;32330;51.936;7.184;2023-01-16T05:14:55;4.10;99.90
46608;DHT22;32330;51.936;7.184;2023-01-16T05:17:22;4.10;99.90
46608;DHT22;32330;51.936;7.184;2023-01-16T05:19:50;4.10;99.90
46608;DHT22;32330;51.936;7.184;2023-01-16T05:22:18;4.10;99.90
46608;DHT22;32330;51.936;7.184;2023-01-16T05:24:45;4.10;99.90
46608;DHT22;32330;51.936;7.184;2023-01-16T05:27:11;4.10;99.90
46608;DHT22;32330;51.936;7.184;2023-01-16T05:29:40;4.10;99.90
46608;DHT22;32330;51.936;7.184;2023-01-16T05:32:07;4.10;99.90
46608;DHT22;32330;51.936;7.184;2023-01-16T05:34:34;4.10;99.90
46608;DHT22;32330;51.936;7.184;2023-01-16T05:37:00;4.20;99.90
46608;DHT22;32330;51.936;7.184;2023-01-16T05:39:27;4.20;99.90
46608;DHT22;32330;51.936;7.184;2023-01-16T05:41:54;4.10;99.90
46608;DHT22;32330;51.936;7.184;2023-01-16T05:44:21;4.10;99.90
46608;DHT22;32330;51.936;7.184;2023-01-16T05:46:49;4.10;99.90
46608;DHT22;32330;51.936;7.184;2023-01-16T05:49:16;4.10;99.90
46608;DHT22;32330;51.936;7.184;2023-01-16T05:51:44;4.10;99.90
46608;DHT22;32330;51.936;7.184;2023-01-16T05:54:11;4.10;99.90
46608;DHT22;32330;51.936;7.184;2023-01-16T05:56:39;4.10;99.90
46608;DHT22;32330;51.936;7.184;2023-01-16T05:59:07;4.10;99.90
46608;DHT22;32330;51.936;7.184;2023-01-16T06:01:35;4.00;99.90
46608;DHT22;32330;51.936;7.184;2023-01-16T06:04:03;4.10;99.90
46608;DHT22;32330;51.936;7.184;2023-01-16T06:06:30;4.00;99.90
46608;DHT22;32330;51.936;7.184;2023-01-16T06:08:57;4.00;99.90
46608;DHT22;32330;51.936;7.184;2023-01-16T06:11:24;4.00;99.90
46608;DHT22;32330;51.936;7.184;2023-01-16T06:13:51;4.00;99.90
46608;DHT22;32330;51.936;7.184;2023-01-16T06:16:18;4.00;99.90
46608;DHT22;32330;51.936;7.184;2023-01-16T06:18:45;4.00;99.90
46608;DHT22;32330;51.936;7.184;2023-01-16T06:21:13;4.00;99.90
46608;DHT22;32330;51.936;7.184;2023-01-16T06:23:40;4.00;99.90
46608;DHT22;32330;51.936;7.184;2023-01-16T06:26:07;4.10;99.90
46608;DHT22;32330;51.936;7.184;2023-01-16T06:28:35;4.10;99.90
46608;DHT22;32330;51.936;7.184;2023-01-16T06:31:02;4.10;99.90
46608;DHT22;32330;51.936;7.184;2023-01-16T06:33:30;4.10;99.90
46608;DHT22;32330;51.936;7.184;2023-01-16T06:35:57;4.20;99.90
46608;DHT22;32330;51.936;7.184;2023-01-16T06:38:25;4.20;99.90
46608;DHT22;32330;51.936;7.184;2023-01-16T06:40:52;4.20;99.90
46608;DHT22;32330;51.936;7.184;2023-01-16T06:43:22;4.20;99.90
46608;DHT22;32330;51.936;7.184;2023-01-16T06:45:49;4.30;99.90
46608;DHT22;32330;51.936;7.184;2023-01-16T06:48:16;4.20;99.90
46608;DHT22;32330;51.936;7.184;2023-01-16T06:50:44;4.30;99.90
46608;DHT22;32330;51.936;7.184;2023-01-16T06:53:11;4.30;99.90
46608;DHT22;32330;51.936;7.184;2023-01-16T06:55:40;4.30;99.90
46608;DHT22;32330;51.936;7.184;2023-01-16T06:58:08;4.30;99.90
46608;DHT22;32330;51.936;7.184;2023-01-16T07:00:36;4.30;99.90
46608;DHT22;32330;51.936;7.184;2023-01-16T07:03:03;4.30;99.90
46608;DHT22;32330;51.936;7.184;2023-01-16T07:05:31;4.30;99.90
46608;DHT22;32330;51.936;7.184;2023-01-16T07:07:58;4.30;99.90
46608;DHT22;32330;51.936;7.184;2023-01-16T07:10:25;4.40;99.90
46608;DHT22;32330;51.936;7.184;2023-01-16T07:12:54;4.30;99.90
46608;DHT22;32330;51.936;7.184;2023-01-16T07:15:21;4.40;99.90
46608;DHT22;32330;51.936;7.184;2023-01-16T07:18:11;4.40;99.90
46608;DHT22;32330;51.936;7.184;2023-01-16T07:20:59;4.40;99.90
46608;DHT22;32330;51.936;7.184;2023-01-16T07:23:46;4.40;99.90
46608;DHT22;32330;51.936;7.184;2023-01-16T07:26:15;4.40;99.90
46608;DHT22;32330;51.936;7.184;2023-01-16T07:28:44;4.40;99.90
46608;DHT22;32330;51.936;7.184;2023-01-16T07:31:12;4.40;99.90
46608;DHT22;32330;51.936;7.184;2023-01-16T07:33:39;4.50;99.90
46608;DHT22;32330;51.936;7.184;2023-01-16T07:36:06;4.40;99.90
46608;DHT22;32330;51.936;7.184;2023-01-16T07:38:33;4.50;99.90
46608;DHT22;32330;51.936;7.184;2023-01-16T07:41:00;4.50;99.90
46608;DHT22;32330;51.936;7.184;2023-01-16T07:43:27;4.50;99.90
46608;DHT22;32330;51.936;7.184;2023-01-16T07:45:55;4.40;99.90
46608;DHT22;32330;51.936;7.184;2023-01-16T07:48:23;4.50;99.90
46608;DHT22;32330;51.936;7.184;2023-01-16T07:50:51;4.50;99.90
46608;DHT22;32330;51.936;7.184;2023-01-16T07:53:19;4.50;99.90
46608;DHT22;32330;51.936;7.184;2023-01-16T07:55:48;4.50;99.90
46608;DHT22;32330;51.936;7.184;2023-01-16T07:58:15;4.50;99.90
46608;DHT22;32330;51.936;7.184;2023-01-16T08:00:42;4.60;99.90
46608;DHT22;32330;51.936;7.184;2023-01-16T08:03:11;4.60;99.90
46608;DHT22;32330;51.936;7.184;2023-01-16T08:05:38;4.60;99.90
46608;DHT22;32330;51.936;7.184;2023-01-16T08:08:05;4.60;99.90
46608;DHT22;32330;51.936;7.184;2023-01-16T08:10:32;4.60;99.90
46608;DHT22;32330;51.936;7.184;2023-01-16T08:12:59;4.60;99.90
46608;DHT22;32330;51.936;7.184;2023-01-16T08:15:26;4.70;99.90
46608;DHT22;32330;51.936;7.184;2023-01-16T08:17:53;4.70;99.90
46608;DHT22;32330;51.936;7.184;2023-01-16T08:20:21;4.70;99.90
46608;DHT22;32330;51.936;7.184;2023-01-16T08:22:49;4.70;99.90
46608;DHT22;32330;51.936;7.184;2023-01-16T08:25:17;4.70;99.90
46608;DHT22;32330;51.936;7.184;2023-01-16T08:27:45;4.70;99.90
46608;DHT22;32330;51.936;7.184;2023-01-16T08:30:13;4.70;99.90
46608;DHT22;32330;51.936;7.184;2023-01-16T08:32:40;4.70;99.90
46608;DHT22;32330;51.936;7.184;2023-01-16T08:35:08;4.70;99.90
46608;DHT22;32330;51.936;7.184;2023-01-16T08:37:37;4.70;99.90
46608;DHT22;32330;51.936;7.184;2023-01-16T08:40:05;4.70;99.90
46608;DHT22;32330;51.936;7.184;2023-01-16T08:42:32;4.80;99.90
46608;DHT22;32330;51.936;7.184;2023-01-16T08:45:16;4.80;99.90
46608;DHT22;32330;51.936;7.184;2023-01-16T08:48:01;4.80;99.90
46608;DHT22;32330;51.936;7.184;2023-01-16T08:50:57;4.80;99.90
46608;DHT22;32330;51.936;7.184;2023-01-16T08:53:42;4.80;99.90
46608;DHT22;32330;51.936;7.184;2023-01-16T08:56:09;4.80;99.90
46608;DHT22;32330;51.936;7.184;2023-01-16T08:58:36;4.80;99.90
46608;DHT22;32330;51.936;7.184;2023-01-16T09:01:04;4.80;99.90
46608;DHT22;32330;51.936;7.184;2023-01-16T09:03:31;4.80;99.90
46608;DHT22;32330;51.936;7.184;2023-01-16T09:05:59;4.80;99.90
46608;DHT22;32330;51.936;7.184;2023-01-16T09:08:26;4.80;99.90
46608;DHT22;32330;51.936;7.184;2023-01-16T09:10:54;4.80;99.90
46608;DHT22;32330;51.936;7.184;2023-01-16T09:13:39;4.80;99.90
46608;DHT22;32330;51.936;7.184;2023-01-16T09:16:15;4.80;99.90
46608;DHT22;32330;51.936;7.184;2023-01-16T09:18:43;4.80;99.90
46608;DHT22;32330;51.936;7.184;2023-01-16T09:21:10;4.80;99.90
46608;DHT22;32330;51.936;7.184;2023-01-16T09:23:37;4.80;99.90
46608;DHT22;32330;51.936;7.184;2023-01-16T09:26:05;4.80;99.90
46608;DHT22;32330;51.936;7.184;2023-01-16T09:28:32;4.90;99.90
46608;DHT22;32330;51.936;7.184;2023-01-16T09:30:59;4.80;99.90
46608;DHT22;32330;51.936;7.184;2023-01-16T09:33:26;4.90;99.90
46608;DHT22;32330;51.936;7.184;2023-01-16T09:35:53;4.90;99.90
46608;DHT22;32330;51.936;7.184;2023-01-16T09:38:20;4.90;99.90
46608;DHT22;32330;51.936;7.184;2023-01-16T09:40:51;4.90;99.90
46608;DHT22;32330;51.936;7.184;2023-01-16T09:43:37;4.90;99.90
46608;DHT22;32330;51.936;7.184;2023-01-16T09:46:09;5.00;99.90
46608;DHT22;32330;51.936;7.184;2023-01-16T09:48:44;5.00;99.90
46608;DHT22;32330;51.936;7.184;2023-01-16T09:51:16;5.00;99.90
46608;DHT22;32330;51.936;7.184;2023-01-16T09:53:47;5.00;99.90
46608;DHT22;32330;51.936;7.184;2023-01-16T09:56:36;5.00;99.90
46608;DHT22;32330;51.936;7.184;2023-01-16T09:59:27;5.00;99.90
46608;DHT22;32330;51.936;7.184;2023-01-16T10:02:08;5.10;99.90
46608;DHT22;32330;51.936;7.184;2023-01-16T10:04:36;5.10;99.90
46608;DHT22;32330;51.936;7.184;2023-01-16T10:07:25;5.10;99.90
46608;DHT22;32330;51.936;7.184;2023-01-16T10:10:03;5.10;99.90
46608;DHT22;32330;51.936;7.184;2023-01-16T10:12:35;5.20;99.90
46608;DHT22;32330;51.936;7.184;2023-01-16T10:15:16;5.20;99.90
46608;DHT22;32330;51.936;7.184;2023-01-16T10:17:55;5.20;99.90
46608;DHT22;32330;51.936;7.184;2023-01-16T10:20:40;5.20;99.90
46608;DHT22;32330;51.936;7.184;2023-01-16T10:23:21;5.20;99.90
46608;DHT22;32330;51.936;7.184;2023-01-16T10:26:00;5.30;99.90
46608;DHT22;32330;51.936;7.184;2023-01-16T10:28:39;5.30;99.90
46608;DHT22;32330;51.936;7.184;2023-01-16T10:31:13;5.30;99.90
46608;DHT22;32330;51.936;7.184;2023-01-16T10:33:45;5.30;99.90
46608;DHT22;32330;51.936;7.184;2023-01-16T10:36:17;5.30;99.90
46608;DHT22;32330;51.936;7.184;2023-01-16T10:38:45;5.30;99.90
46608;DHT22;32330;51.936;7.184;2023-01-16T10:41:19;5.30;99.90
46608;DHT22;32330;51.936;7.184;2023-01-16T10:44:17;5.30;99.90
46608;DHT22;32330;51.936;7.184;2023-01-16T10:47:06;5.30;99.90
46608;DHT22;32330;51.936;7.184;2023-01-16T10:49:52;5.30;99.90
46608;DHT22;32330;51.936;7.184;2023-01-16T10:52:19;5.30;99.90
46608;DHT22;32330;51.936;7.184;2023-01-16T10:54:46;5.30;99.90
46608;DHT22;32330;51.936;7.184;2023-01-16T10:57:16;5.30;99.90
46608;DHT22;32330;51.936;7.184;2023-01-16T10:59:44;5.30;99.90
46608;DHT22;32330;51.936;7.184;2023-01-16T11:02:17;5.30;99.90
46608;DHT22;32330;51.936;7.184;2023-01-16T11:04:48;5.30;99.90
46608;DHT22;32330;51.936;7.184;2023-01-16T11:07:17;5.30;99.90
46608;DHT22;32330;51.936;7.184;2023-01-16T11:09:44;5.30;99.90
46608;DHT22;32330;51.936;7.184;2023-01-16T11:12:17;5.30;99.90
46608;DHT22;32330;51.936;7.184;2023-01-16T11:15:07;5.30;99.90
46608;DHT22;32330;51.936;7.184;2023-01-16T11:17:55;5.30;99.90
46608;DHT22;32330;51.936;7.184;2023-01-16T11:20:40;5.40;99.90
46608;DHT22;32330;51.936;7.184;2023-01-16T11:23:17;5.30;99.90
46608;DHT22;32330;51.936;7.184;2023-01-16T11:25:45;5.30;99.90
46608;DHT22;32330;51.936;7.184;2023-01-16T11:28:18;5.30;99.90
46608;DHT22;32330;51.936;7.184;2023-01-16T11:30:47;5.30;99.90
46608;DHT22;32330;51.936;7.184;2023-01-16T11:33:18;5.30;99.90
46608;DHT22;32330;51.936;7.184;2023-01-16T11:35:51;5.30;99.90
46608;DHT22;32330;51.936;7.184;2023-01-16T11:38:20;5.30;99.90
46608;DHT22;32330;51.936;7.184;2023-01-16T11:40:48;5.30;99.90
46608;DHT22;32330;51.936;7.184;2023-01-16T11:43:18;5.30;99.90
46608;DHT22;32330;51.936;7.184;2023-01-16T11:46:07;5.30;99.90
46608;DHT22;32330;51.936;7.184;2023-01-16T11:48:53;5.30;99.90
46608;DHT22;32330;51.936;7.184;2023-01-16T11:51:24;5.40;99.90
46608;DHT22;32330;51.936;7.184;2023-01-16T11:53:54;5.30;99.90
46608;DHT22;32330;51.936;7.184;2023-01-16T11:56:43;5.40;99.90
46608;DHT22;32330;51.936;7.184;2023-01-16T11:59:39;5.40;99.90
46608;DHT22;32330;51.936;7.184;2023-01-16T12:02:27;5.50;99.90
46608;DHT22;32330;51.936;7.184;2023-01-16T12:05:08;5.60;99.90
46608;DHT22;32330;51.936;7.184;2023-01-16T12:08:05;5.70;99.90
46608;DHT22;32330;51.936;7.184;2023-01-16T12:10:40;5.80;99.90
46608;DHT22;32330;51.936;7.184;2023-01-16T12:13:09;5.90;99.90
46608;DHT22;32330;51.936;7.184;2023-01-16T12:16:15;5.90;99.90
46608;DHT22;32330;51.936;7.184;2023-01-16T12:18:58;6.00;99.90
46608;DHT22;32330;51.936;7.184;2023-01-16T12:21:34;6.00;99.90
46608;DHT22;32330;51.936;7.184;2023-01-16T12:24:21;6.00;99.90
46608;DHT22;32330;51.936;7.184;2023-01-16T12:27:06;6.10;99.90
46608;DHT22;32330;51.936;7.184;2023-01-16T12:29:46;6.10;99.90
46608;DHT22;32330;51.936;7.184;2023-01-16T12:32:43;6.20;99.90
46608;DHT22;32330;51.936;7.184;2023-01-16T12:35:28;6.10;99.90
46608;DHT22;32330;51.936;7.184;2023-01-16T12:38:08;6.20;99.90
46608;DHT22;32330;51.936;7.184;2023-01-16T12:41:14;6.10;99.90
46608;DHT22;32330;51.936;7.184;2023-01-16T12:47:12;6.20;99.90
46608;DHT22;32330;51.936;7.184;2023-01-16T12:49:52;6.10;99.90
46608;DHT22;32330;51.936;7.184;2023-01-16T12:52:34;6.10;99.90
46608;DHT22;32330;51.936;7.184;2023-01-16T12:55:18;6.10;99.90
46608;DHT22;32330;51.936;7.184;2023-01-16T12:57:58;6.10;99.90
46608;DHT22;32330;51.936;7.184;2023-01-16T13:00:29;6.10;99.90
46608;DHT22;32330;51.936;7.184;2023-01-16T13:03:02;6.00;99.90
46608;DHT22;32330;51.936;7.184;2023-01-16T13:05:36;6.00;99.90
46608;DHT22;32330;51.936;7.184;2023-01-16T13:08:11;6.10;99.90
46608;DHT22;32330;51.936;7.184;2023-01-16T13:10:45;6.10;99.90
46608;DHT22;32330;51.936;7.184;2023-01-16T13:13:33;6.00;99.90
46608;DHT22;32330;51.936;7.184;2023-01-16T13:16:10;6.00;99.90
46608;DHT22;32330;51.936;7.184;2023-01-16T13:18:42;6.00;99.90
46608;DHT22;32330;51.936;7.184;2023-01-16T13:21:11;6.00;99.90
46608;DHT22;32330;51.936;7.184;2023-01-16T13:23:44;5.90;99.90
46608;DHT22;32330;51.936;7.184;2023-01-16T13:26:16;5.90;99.90
46608;DHT22;32330;51.936;7.184;2023-01-16T13:28:49;6.00;99.90
46608;DHT22;32330;51.936;7.184;2023-01-16T13:31:23;5.90;99.90
46608;DHT22;32330;51.936;7.184;2023-01-16T13:33:55;5.90;99.90
46608;DHT22;32330;51.936;7.184;2023-01-16T13:36:35;5.90;99.90
46608;DHT22;32330;51.936;7.184;2023-01-16T13:39:23;5.90;99.90
46608;DHT22;32330;51.936;7.184;2023-01-16T13:41:56;6.00;99.90
46608;DHT22;32330;51.936;7.184;2023-01-16T13:44:27;6.00;99.90
46608;DHT22;32330;51.936;7.184;2023-01-16T13:47:17;6.10;99.90
46608;DHT22;32330;51.936;7.184;2023-01-16T13:49:48;6.00;99.90
46608;DHT22;32330;51.936;7.184;2023-01-16T13:52:19;6.10;99.90
46608;DHT22;32330;51.936;7.184;2023-01-16T13:54:48;6.00;99.90
46608;DHT22;32330;51.936;7.184;2023-01-16T13:57:18;6.00;99.90
46608;DHT22;32330;51.936;7.184;2023-01-16T13:59:50;6.00;99.90
46608;DHT22;32330;51.936;7.184;2023-01-16T14:02:38;6.00;99.90
46608;DHT22;32330;51.936;7.184;2023-01-16T14:05:42;5.90;99.90
46608;DHT22;32330;51.936;7.184;2023-01-16T14:08:28;5.90;99.90
46608;DHT22;32330;51.936;7.184;2023-01-16T14:11:27;6.00;99.90
46608;DHT22;32330;51.936;7.184;2023-01-16T14:14:23;6.00;99.90
46608;DHT22;32330;51.936;7.184;2023-01-16T14:17:05;6.00;99.90
46608;DHT22;32330;51.936;7.184;2023-01-16T14:19:36;5.90;99.90
46608;DHT22;32330;51.936;7.184;2023-01-16T14:22:04;5.90;99.90
46608;DHT22;32330;51.936;7.184;2023-01-16T14:24:47;5.90;99.90
46608;DHT22;32330;51.936;7.184;2023-01-16T14:27:18;6.00;99.90
46608;DHT22;32330;51.936;7.184;2023-01-16T14:29:49;5.90;99.90
46608;DHT22;32330;51.936;7.184;2023-01-16T14:32:18;5.90;99.90
46608;DHT22;32330;51.936;7.184;2023-01-16T14:34:50;5.80;99.90
46608;DHT22;32330;51.936;7.184;2023-01-16T14:37:22;5.90;99.90
46608;DHT22;32330;51.936;7.184;2023-01-16T14:39:51;5.90;99.90
46608;DHT22;32330;51.936;7.184;2023-01-16T14:42:23;5.90;99.90
46608;DHT22;32330;51.936;7.184;2023-01-16T14:45:29;5.90;99.90
46608;DHT22;32330;51.936;7.184;2023-01-16T14:48:31;5.90;99.90
46608;DHT22;32330;51.936;7.184;2023-01-16T14:51:18;5.90;99.90
46608;DHT22;32330;51.936;7.184;2023-01-16T14:54:10;5.90;99.90
46608;DHT22;32330;51.936;7.184;2023-01-16T14:57:00;5.90;99.90
46608;DHT22;32330;51.936;7.184;2023-01-16T14:59:31;5.80;99.90
46608;DHT22;32330;51.936;7.184;2023-01-16T15:02:05;5.80;99.90
46608;DHT22;32330;51.936;7.184;2023-01-16T15:04:51;5.80;99.90
46608;DHT22;32330;51.936;7.184;2023-01-16T15:07:23;5.70;99.90
46608;DHT22;32330;51.936;7.184;2023-01-16T15:09:52;5.80;99.90
46608;DHT22;32330;51.936;7.184;2023-01-16T15:12:20;5.80;99.90
46608;DHT22;32330;51.936;7.184;2023-01-16T15:14:53;5.70;99.90
46608;DHT22;32330;51.936;7.184;2023-01-16T15:17:24;5.80;99.90
46608;DHT22;32330;51.936;7.184;2023-01-16T15:20:21;5.80;99.90
46608;DHT22;32330;51.936;7.184;2023-01-16T15:23:24;5.80;99.90
46608;DHT22;32330;51.936;7.184;2023-01-16T15:26:22;5.80;99.90
46608;DHT22;32330;51.936;7.184;2023-01-16T15:29:14;5.80;99.90
46608;DHT22;32330;51.936;7.184;2023-01-16T15:31:45;5.70;99.90
46608;DHT22;32330;51.936;7.184;2023-01-16T15:34:21;5.70;99.90
46608;DHT22;32330;51.936;7.184;2023-01-16T15:36:51;5.70;99.90
46608;DHT22;32330;51.936;7.184;2023-01-16T15:39:22;5.70;99.90
46608;DHT22;32330;51.936;7.184;2023-01-16T15:41:54;5.70;99.90
46608;DHT22;32330;51.936;7.184;2023-01-16T15:44:41;5.70;99.90
46608;DHT22;32330;51.936;7.184;2023-01-16T15:50:32;5.60;99.90
46608;DHT22;32330;51.936;7.184;2023-01-16T15:53:02;5.60;99.90
46608;DHT22;32330;51.936;7.184;2023-01-16T15:55:38;5.60;99.90
46608;DHT22;32330;51.936;7.184;2023-01-16T15:58:12;5.60;99.90
46608;DHT22;32330;51.936;7.184;2023-01-16T16:00:42;5.60;99.90
46608;DHT22;32330;51.936;7.184;2023-01-16T16:03:15;5.60;99.90
46608;DHT22;32330;51.936;7.184;2023-01-16T16:05:49;5.50;99.90
46608;DHT22;32330;51.936;7.184;2023-01-16T16:08:19;5.50;99.90
46608;DHT22;32330;51.936;7.184;2023-01-16T16:10:47;5.40;99.90
46608;DHT22;32330;51.936;7.184;2023-01-16T16:13:46;5.40;99.90
46608;DHT22;32330;51.936;7.184;2023-01-16T16:16:16;5.30;99.90
46608;DHT22;32330;51.936;7.184;2023-01-16T16:19:01;5.30;99.90
46608;DHT22;32330;51.936;7.184;2023-01-16T16:21:32;5.30;99.90
46608;DHT22;32330;51.936;7.184;2023-01-16T16:24:03;5.30;99.90
46608;DHT22;32330;51.936;7.184;2023-01-16T16:26:36;5.30;99.90
46608;DHT22;32330;51.936;7.184;2023-01-16T16:29:05;5.20;99.90
46608;DHT22;32330;51.936;7.184;2023-01-16T16:31:33;5.30;99.90